Poseidon — JD3978 — position and weather

sailwx.info

Track history (hours):
 
Tides and Currents Weather Stations Pressure Air Temp Water Temp Dewpoint Dewpoint Depression Visibility Wind Speed Wind Dir Waves Ship Positions

Poseidon

Last reported at 2018-May-21 10:04 UTC. Time now 2018-May-21 14:31 UTC.
Position N 34°25' E 134°13'.

Length 70 m; draft 5 m.

Type: Cargo ship. MMSI: 431007549.

Date/timePositionNaut miles runAvg speedWind from/ knotsBaromVisibWave heightAir tempDewpointWater temp
2018-May-21 10:04N 34°25' E 134°13'210.0
2018-May-21 09:51N 34°24' E 134°15'411.0
2018-May-21 09:30N 34°23' E 134°20'611.4
2018-May-21 09:00N 34°21' E 134°26'611.7
2018-May-21 08:30N 34°18' E 134°32'7 9.7
2018-May-21 07:44N 34°14' E 134°40'21 1.5
2018-May-20 17:18N 33°53' E 134°45'6 0.2
2018-May-19 14:20N 33°51' E 134°52'511.0
2018-May-19 13:55N 33°56' E 134°54'410.7
2018-May-19 13:30N 34°00' E 134°55'510.6
2018-May-19 13:01N 34°05' E 134°56'611.3
2018-May-19 12:31N 34°11' E 134°57'510.8
2018-May-19 12:01N 34°16' E 134°58'5 9.3
2018-May-19 11:31N 34°21' E 135°00'611.1
2018-May-19 11:01N 34°24' E 135°05'612.3
2018-May-19 10:30N 34°29' E 135°10'612.0
2018-May-19 10:00N 34°33' E 135°15'612.1
2018-May-19 09:30N 34°38' E 135°20'5 9.2
2018-May-19 09:00N 34°43' E 135°20'0 0.3
2018-May-19 08:30N 34°43' E 135°20'0 0.0
2018-May-19 08:00N 34°43' E 135°20'0 0.0
2018-May-19 07:30N 34°43' E 135°20'0 0.0
2018-May-19 07:00N 34°43' E 135°20'0 0.0
2018-May-19 06:30N 34°43' E 135°20'0 0.0
2018-May-19 06:00N 34°43' E 135°20'0 0.0
2018-May-19 05:30N 34°43' E 135°20'3 6.0
2018-May-19 05:00N 34°40' E 135°22'5 9.5
2018-May-19 04:30N 34°35' E 135°20'6 1.1
2018-May-18 23:30N 34°32' E 135°25'0 0.0
2018-May-18 22:59N 34°32' E 135°25'0 0.0
2018-May-18 22:29N 34°32' E 135°25'0 0.0
2018-May-18 22:00N 34°32' E 135°25'0 0.0
2018-May-18 21:21N 34°32' E 135°25'0 0.5
2018-May-18 20:58N 34°31' E 135°25'3 6.3
2018-May-18 20:30N 34°32' E 135°22'1 1.6
2018-May-18 20:00N 34°32' E 135°21'0 0.0
2018-May-18 19:29N 34°32' E 135°21'0 0.1
2018-May-18 18:59N 34°32' E 135°21'0 0.1
2018-May-18 18:29N 34°32' E 135°21'0 0.0
2018-May-18 18:00N 34°32' E 135°21'0 0.0
2018-May-18 17:30N 34°32' E 135°21'0 0.0
2018-May-18 16:59N 34°32' E 135°21'0 0.0
2018-May-18 16:29N 34°32' E 135°21'0 0.0
2018-May-18 15:59N 34°32' E 135°21'0 0.0
2018-May-18 15:30N 34°32' E 135°21'0 0.0
2018-May-18 14:59N 34°32' E 135°21'1 1.7
2018-May-18 14:30N 34°32' E 135°20'510.7
2018-May-18 14:00N 34°28' E 135°15'611.5
2018-May-18 13:30N 34°25' E 135°10'611.8
2018-May-18 13:00N 34°20' E 135°05'611.8
2018-May-18 12:30N 34°14' E 135°03'611.6
2018-May-18 12:00N 34°09' E 135°03'612.1
2018-May-18 11:30N 34°03' E 135°02'712.0
2018-May-18 10:57N 33°56' E 135°02'224 8.3
2018-May-17 08:04N 34°56' E 139°24'1 6.0
2018-May-17 07:57N 34°56' E 139°25'2 5.2
2018-May-17 07:29N 34°57' E 139°28'3 5.8
2018-May-17 06:58N 34°59' E 139°31'3 7.3
2018-May-17 06:30N 35°02' E 139°34'4 8.3
2018-May-17 06:00N 35°04' E 139°37'5 9.6
2018-May-17 05:29N 35°08' E 139°42'5 9.4
2018-May-17 05:00N 35°11' E 139°45'4 8.5
2018-May-17 04:30N 35°15' E 139°46'5 9.5
2018-May-17 04:00N 35°19' E 139°43'5 9.8
2018-May-17 03:30N 35°24' E 139°43'5 9.0
2018-May-17 03:00N 35°29' E 139°42'2 3.8
2018-May-17 02:30N 35°30' E 139°43'0 0.0
2018-May-17 02:00N 35°30' E 139°43'0 0.0
2018-May-17 01:30N 35°30' E 139°43'0 0.0
2018-May-17 01:00N 35°30' E 139°43'0 0.0
2018-May-17 00:30N 35°30' E 139°43'0 0.0
2018-May-17 00:00N 35°30' E 139°43'0 0.0
2018-May-16 23:30N 35°30' E 139°43'0 0.2
2018-May-16 23:00N 35°30' E 139°43'2 3.2
2018-May-16 22:30N 35°29' E 139°42'3 5.2
2018-May-16 22:00N 35°26' E 139°43'0 0.1
2018-May-16 21:30N 35°26' E 139°43'0 0.0
2018-May-16 21:00N 35°26' E 139°43'0 0.0
2018-May-16 20:30N 35°26' E 139°43'0 0.0
2018-May-16 20:00N 35°26' E 139°43'0 0.0
2018-May-16 19:30N 35°26' E 139°43'0 0.1
2018-May-16 19:00N 35°26' E 139°43'0 0.0
2018-May-16 18:30N 35°26' E 139°43'0 0.1
2018-May-16 18:00N 35°26' E 139°43'0 0.0
2018-May-16 17:30N 35°26' E 139°43'0 0.0
2018-May-16 17:00N 35°26' E 139°43'0 0.0
2018-May-16 16:30N 35°26' E 139°43'0 0.0
2018-May-16 16:00N 35°26' E 139°43'0 0.0
2018-May-16 15:30N 35°26' E 139°43'0 0.0
2018-May-16 15:00N 35°26' E 139°43'0 0.1
2018-May-16 14:30N 35°26' E 139°43'0 0.1
2018-May-16 14:00N 35°26' E 139°43'0 0.1
2018-May-16 13:30N 35°26' E 139°43'0 0.0
2018-May-16 12:59N 35°26' E 139°43'0 0.1
2018-May-16 12:29N 35°26' E 139°43'0 0.1
2018-May-16 12:00N 35°26' E 139°43'0 0.1
2018-May-16 11:30N 35°26' E 139°43'0 0.0
2018-May-16 11:00N 35°26' E 139°43'0 0.1
2018-May-16 10:30N 35°26' E 139°43'0 0.1
2018-May-16 10:00N 35°26' E 139°43'0 0.1
2018-May-16 09:29N 35°26' E 139°43'0 0.0
2018-May-16 09:00N 35°26' E 139°43'3 5.7
2018-May-16 08:30N 35°29' E 139°43'2 3.3
2018-May-16 08:00N 35°31' E 139°44'0 0.0
2018-May-16 07:30N 35°31' E 139°44'0 0.0
2018-May-16 07:00N 35°31' E 139°44'0 0.0
2018-May-16 06:30N 35°31' E 139°44'0 0.0
2018-May-16 06:00N 35°31' E 139°44'0 0.0
2018-May-16 05:30N 35°31' E 139°44'0 0.0
2018-May-16 05:00N 35°31' E 139°44'0 0.0
2018-May-16 04:26N 35°31' E 139°44'0 0.0
2018-May-16 03:51N 35°31' E 139°44'0 0.0
2018-May-16 03:30N 35°31' E 139°44'0 0.0
2018-May-16 03:00N 35°31' E 139°44'0 0.1
2018-May-16 02:30N 35°31' E 139°44'1 2.8
2018-May-16 02:00N 35°29' E 139°43'3 6.2
2018-May-16 01:30N 35°26' E 139°43'0 0.0
2018-May-16 01:00N 35°26' E 139°43'0 0.1
2018-May-16 00:30N 35°26' E 139°43'0 0.0
2018-May-16 00:00N 35°26' E 139°43'0 0.0
2018-May-15 23:30N 35°26' E 139°43'0 0.0
2018-May-15 23:00N 35°26' E 139°43'0 0.0
2018-May-15 22:30N 35°26' E 139°43'0 0.0
2018-May-15 22:00N 35°26' E 139°43'0 0.0
2018-May-15 21:30N 35°26' E 139°43'0 0.0
2018-May-15 21:00N 35°26' E 139°43'0 0.1
2018-May-15 20:30N 35°26' E 139°43'0 0.0
2018-May-15 20:00N 35°26' E 139°43'0 0.0
2018-May-15 19:30N 35°26' E 139°43'0 0.0
2018-May-15 19:00N 35°26' E 139°43'0 0.0
2018-May-15 18:30N 35°26' E 139°43'0 0.0
2018-May-15 18:00N 35°26' E 139°43'0 0.0
2018-May-15 17:30N 35°26' E 139°43'0 0.0
2018-May-15 17:00N 35°26' E 139°43'0 0.0
2018-May-15 16:30N 35°26' E 139°43'0 0.0
2018-May-15 15:59N 35°26' E 139°43'0 0.0
2018-May-15 15:30N 35°26' E 139°43'0 0.0
2018-May-15 15:00N 35°26' E 139°43'0 0.0
2018-May-15 14:30N 35°26' E 139°43'0 0.0
2018-May-15 14:00N 35°26' E 139°43'0 0.0
2018-May-15 13:30N 35°26' E 139°43'0 0.0
2018-May-15 13:00N 35°26' E 139°43'0 0.0
2018-May-15 12:30N 35°26' E 139°43'0 0.0
2018-May-15 12:00N 35°26' E 139°43'0 0.1
2018-May-15 11:30N 35°26' E 139°43'0 0.0
2018-May-15 11:00N 35°26' E 139°43'0 0.1
2018-May-15 10:30N 35°26' E 139°43'0 0.1
2018-May-15 10:00N 35°26' E 139°43'0 0.1
2018-May-15 09:30N 35°26' E 139°43'0 0.1
2018-May-15 09:00N 35°26' E 139°43'0 0.0
2018-May-15 08:30N 35°26' E 139°43'0 0.1
2018-May-15 08:00N 35°26' E 139°43'0 0.1
2018-May-15 07:30N 35°26' E 139°43'0 0.0
2018-May-15 07:00N 35°26' E 139°43'0 0.1
2018-May-15 06:30N 35°26' E 139°43'0 0.1
2018-May-15 06:00N 35°26' E 139°43'0 0.0
2018-May-15 05:30N 35°26' E 139°43'0 0.1
2018-May-15 05:00N 35°26' E 139°43'0 0.0
2018-May-15 04:30N 35°26' E 139°43'0 0.0
2018-May-15 04:00N 35°26' E 139°43'0 0.0
2018-May-15 03:30N 35°26' E 139°43'0 0.0
2018-May-15 03:00N 35°26' E 139°43'0 0.1
2018-May-15 02:30N 35°26' E 139°43'0 0.0
2018-May-15 02:00N 35°26' E 139°43'0 0.1
2018-May-15 01:30N 35°26' E 139°43'0 0.0
2018-May-15 01:00N 35°26' E 139°43'0 0.0
2018-May-15 00:30N 35°26' E 139°43'0 0.0
2018-May-15 00:00N 35°26' E 139°43'0 0.0
2018-May-14 23:30N 35°26' E 139°43'0 0.0
2018-May-14 23:00N 35°26' E 139°43'0 0.0
2018-May-14 22:30N 35°26' E 139°43'0 0.0
2018-May-14 22:00N 35°26' E 139°43'0 0.0
2018-May-14 21:30N 35°26' E 139°43'0 0.0
2018-May-14 21:00N 35°26' E 139°43'0 0.0
2018-May-14 20:30N 35°26' E 139°43'0 0.0
2018-May-14 20:00N 35°26' E 139°43'0 0.0
2018-May-14 19:30N 35°26' E 139°43'0 0.0
2018-May-14 19:00N 35°26' E 139°43'0 0.0
2018-May-14 18:30N 35°26' E 139°43'0 0.0
2018-May-14 18:00N 35°26' E 139°43'0 0.0
2018-May-14 17:30N 35°26' E 139°43'0 0.0
2018-May-14 17:00N 35°26' E 139°43'0 0.1
2018-May-14 16:30N 35°26' E 139°43'0 0.0
2018-May-14 16:00N 35°26' E 139°43'0 0.0
2018-May-14 15:30N 35°26' E 139°43'0 0.0
2018-May-14 15:00N 35°26' E 139°43'0 0.0
2018-May-14 14:30N 35°26' E 139°43'0 0.0
2018-May-14 14:00N 35°26' E 139°43'0 0.0
2018-May-14 13:30N 35°26' E 139°43'0 0.0
2018-May-14 13:00N 35°26' E 139°43'0 0.0
2018-May-14 12:30N 35°26' E 139°43'0 0.1
2018-May-14 12:00N 35°26' E 139°43'0 0.0
2018-May-14 11:30N 35°26' E 139°43'0 0.0
2018-May-14 11:00N 35°26' E 139°43'2 3.9
2018-May-14 10:30N 35°27' E 139°45'3 7.0
2018-May-14 10:00N 35°23' E 139°46'5 9.1
2018-May-14 09:30N 35°19' E 139°44'5 9.4
2018-May-14 08:59N 35°15' E 139°47'510.2
2018-May-14 08:30N 35°10' E 139°47'510.7
2018-May-14 08:00N 35°05' E 139°44'510.7
2018-May-14 07:30N 35°01' E 139°39'611.8
2018-May-14 06:59N 34°58' E 139°33'712.8
2018-May-14 06:27N 34°54' E 139°26'613.0
2018-May-14 05:58N 34°51' E 139°20'612.4
2018-May-14 05:29N 34°47' E 139°14'812.2
2018-May-14 04:51N 34°42' E 139°07'411.5
2018-May-14 04:31N 34°39' E 139°03'5 9.8
2018-May-14 03:58N 34°36' E 138°58'612.1
2018-May-14 03:26N 34°34' E 138°51'711.4
2018-May-14 02:49N 34°33' E 138°42'411.2
2018-May-14 02:30N 34°32' E 138°38'182 9.2
2018-May-13 06:48N 33°46' E 135°06'3 9.4
2018-May-13 06:30N 33°48' E 135°04'5 9.2
2018-May-13 06:00N 33°52' E 135°00'5 9.4
2018-May-13 05:30N 33°55' E 134°56'510.0
2018-May-13 04:59N 33°59' E 134°52'510.4
2018-May-13 04:30N 34°03' E 134°49'510.7
2018-May-13 04:00N 34°08' E 134°45'511.0
2018-May-13 03:30N 34°12' E 134°41'510.8
2018-May-13 03:00N 34°16' E 134°37'4 7.6
2018-May-13 02:30N 34°16' E 134°32'1 1.0
2018-May-13 01:59N 34°16' E 134°31'1 0.9
2018-May-13 01:17N 34°16' E 134°31'0 0.6
2018-May-13 00:57N 34°16' E 134°30'3 4.6
2018-May-13 00:21N 34°17' E 134°27'410.0
2018-May-12 23:54N 34°19' E 134°23'82 8.0
2018-May-12 13:37N 34°01' E 132°46'1 9.5
2018-May-12 13:29N 34°00' E 132°45'510.2
2018-May-12 13:00N 33°56' E 132°41'510.5
2018-May-12 12:30N 33°53' E 132°36'1210.5
2018-May-12 11:23N 33°46' E 132°25'410.8
2018-May-12 11:00N 33°45' E 132°21'610.7
2018-May-12 10:26N 33°42' E 132°14'510.8
2018-May-12 09:56N 33°41' E 132°07'510.8
2018-May-12 09:30N 33°40' E 132°02'510.7
2018-May-12 09:00N 33°38' E 131°56'510.6
2018-May-12 08:30N 33°37' E 131°50'3 6.5
2018-May-12 08:00N 33°36' E 131°46'4 8.5
2018-May-12 07:30N 33°39' E 131°42'4 8.4
2018-May-12 07:00N 33°42' E 131°38'4 8.3
2018-May-12 06:30N 33°43' E 131°34'5 9.5
2018-May-12 06:00N 33°44' E 131°28'5 9.6
2018-May-12 05:30N 33°45' E 131°22'5 9.4
2018-May-12 05:00N 33°46' E 131°17'5 9.8
2018-May-12 04:30N 33°47' E 131°11'5 9.7
2018-May-12 04:00N 33°48' E 131°06'5 9.5
2018-May-12 03:30N 33°48' E 130°60'0 1.0
2018-May-12 03:00N 33°47' E 130°60'0 0.0
2018-May-12 02:30N 33°47' E 130°60'0 0.0
2018-May-12 02:00N 33°47' E 130°60'0 0.0
2018-May-12 01:30N 33°47' E 130°60'0 0.0
2018-May-12 01:00N 33°47' E 130°60'0 0.0
2018-May-12 00:30N 33°47' E 130°60'0 0.0
2018-May-12 00:00N 33°47' E 130°60'0 0.0
2018-May-11 23:30N 33°47' E 130°60'0 0.0
2018-May-11 23:00N 33°47' E 130°60'1 2.9
2018-May-11 22:30N 33°48' E 131°01'2 4.3
2018-May-11 22:00N 33°48' E 131°04'0 0.0
2018-May-11 21:30N 33°48' E 131°04'0 0.0
2018-May-11 21:00N 33°48' E 131°04'0 0.0
2018-May-11 20:30N 33°48' E 131°04'0 0.0
2018-May-11 20:00N 33°48' E 131°04'0 0.0
2018-May-11 19:30N 33°48' E 131°04'0 0.0
2018-May-11 19:00N 33°48' E 131°04'0 0.0
2018-May-11 18:30N 33°48' E 131°04'0 0.0
2018-May-11 18:00N 33°48' E 131°04'0 0.0
2018-May-11 17:30N 33°48' E 131°04'0 0.0
2018-May-11 17:00N 33°48' E 131°04'0 0.1
2018-May-11 16:30N 33°48' E 131°04'0 0.0
2018-May-11 16:00N 33°48' E 131°04'0 0.0
2018-May-11 15:30N 33°48' E 131°04'0 0.0
2018-May-11 15:00N 33°48' E 131°04'0 0.1
2018-May-11 14:30N 33°48' E 131°04'4 8.9
2018-May-11 14:00N 33°48' E 131°09'510.8
2018-May-11 13:30N 33°48' E 131°16'511.0
2018-May-11 13:00N 33°47' E 131°22'510.6
2018-May-11 12:30N 33°47' E 131°29'510.5
2018-May-11 12:00N 33°46' E 131°35'510.5
2018-May-11 11:30N 33°46' E 131°41'610.8
2018-May-11 10:59N 33°46' E 131°48'511.0
2018-May-11 10:30N 33°46' E 131°54'  
Track history (hours):
 
Tides and Currents Weather Stations Pressure Air Temp Water Temp Dewpoint Dewpoint Depression Visibility Wind Speed Wind Dir Waves Ship Positions

Poseidon

Last reported at 2018-May-21 10:04 UTC. Time now 2018-May-21 14:31 UTC.
Position N 34°25' E 134°13'.

Length 70 m; draft 5 m.

Type: Cargo ship. MMSI: 431007549.

Date/timePositionNaut miles runAvg speedWind from/ knotsBaromVisibWave heightAir tempDewpointWater temp
2018-May-21 10:04N 34°25' E 134°13'210.0
2018-May-21 09:51N 34°24' E 134°15'411.0
2018-May-21 09:30N 34°23' E 134°20'611.4
2018-May-21 09:00N 34°21' E 134°26'611.7
2018-May-21 08:30N 34°18' E 134°32'7 9.7
2018-May-21 07:44N 34°14' E 134°40'21 1.5
2018-May-20 17:18N 33°53' E 134°45'6 0.2
2018-May-19 14:20N 33°51' E 134°52'511.0
2018-May-19 13:55N 33°56' E 134°54'410.7
2018-May-19 13:30N 34°00' E 134°55'510.6
2018-May-19 13:01N 34°05' E 134°56'611.3
2018-May-19 12:31N 34°11' E 134°57'510.8
2018-May-19 12:01N 34°16' E 134°58'5 9.3
2018-May-19 11:31N 34°21' E 135°00'611.1
2018-May-19 11:01N 34°24' E 135°05'612.3
2018-May-19 10:30N 34°29' E 135°10'612.0
2018-May-19 10:00N 34°33' E 135°15'612.1
2018-May-19 09:30N 34°38' E 135°20'5 9.2
2018-May-19 09:00N 34°43' E 135°20'0 0.3
2018-May-19 08:30N 34°43' E 135°20'0 0.0
2018-May-19 08:00N 34°43' E 135°20'0 0.0
2018-May-19 07:30N 34°43' E 135°20'0 0.0
2018-May-19 07:00N 34°43' E 135°20'0 0.0
2018-May-19 06:30N 34°43' E 135°20'0 0.0
2018-May-19 06:00N 34°43' E 135°20'0 0.0
2018-May-19 05:30N 34°43' E 135°20'3 6.0
2018-May-19 05:00N 34°40' E 135°22'5 9.5
2018-May-19 04:30N 34°35' E 135°20'6 1.1
2018-May-18 23:30N 34°32' E 135°25'0 0.0
2018-May-18 22:59N 34°32' E 135°25'0 0.0
2018-May-18 22:29N 34°32' E 135°25'0 0.0
2018-May-18 22:00N 34°32' E 135°25'0 0.0
2018-May-18 21:21N 34°32' E 135°25'0 0.5
2018-May-18 20:58N 34°31' E 135°25'3 6.3
2018-May-18 20:30N 34°32' E 135°22'1 1.6
2018-May-18 20:00N 34°32' E 135°21'0 0.0
2018-May-18 19:29N 34°32' E 135°21'0 0.1
2018-May-18 18:59N 34°32' E 135°21'0 0.1
2018-May-18 18:29N 34°32' E 135°21'0 0.0
2018-May-18 18:00N 34°32' E 135°21'0 0.0
2018-May-18 17:30N 34°32' E 135°21'0 0.0
2018-May-18 16:59N 34°32' E 135°21'0 0.0
2018-May-18 16:29N 34°32' E 135°21'0 0.0
2018-May-18 15:59N 34°32' E 135°21'0 0.0
2018-May-18 15:30N 34°32' E 135°21'0 0.0
2018-May-18 14:59N 34°32' E 135°21'1 1.7
2018-May-18 14:30N 34°32' E 135°20'510.7
2018-May-18 14:00N 34°28' E 135°15'611.5
2018-May-18 13:30N 34°25' E 135°10'611.8
2018-May-18 13:00N 34°20' E 135°05'611.8
2018-May-18 12:30N 34°14' E 135°03'611.6
2018-May-18 12:00N 34°09' E 135°03'612.1
2018-May-18 11:30N 34°03' E 135°02'712.0
2018-May-18 10:57N 33°56' E 135°02'224 8.3
2018-May-17 08:04N 34°56' E 139°24'1 6.0
2018-May-17 07:57N 34°56' E 139°25'2 5.2
2018-May-17 07:29N 34°57' E 139°28'3 5.8
2018-May-17 06:58N 34°59' E 139°31'3 7.3
2018-May-17 06:30N 35°02' E 139°34'4 8.3
2018-May-17 06:00N 35°04' E 139°37'5 9.6
2018-May-17 05:29N 35°08' E 139°42'5 9.4
2018-May-17 05:00N 35°11' E 139°45'4 8.5
2018-May-17 04:30N 35°15' E 139°46'5 9.5
2018-May-17 04:00N 35°19' E 139°43'5 9.8
2018-May-17 03:30N 35°24' E 139°43'5 9.0
2018-May-17 03:00N 35°29' E 139°42'2 3.8
2018-May-17 02:30N 35°30' E 139°43'0 0.0
2018-May-17 02:00N 35°30' E 139°43'0 0.0
2018-May-17 01:30N 35°30' E 139°43'0 0.0
2018-May-17 01:00N 35°30' E 139°43'0 0.0
2018-May-17 00:30N 35°30' E 139°43'0 0.0
2018-May-17 00:00N 35°30' E 139°43'0 0.0
2018-May-16 23:30N 35°30' E 139°43'0 0.2
2018-May-16 23:00N 35°30' E 139°43'2 3.2
2018-May-16 22:30N 35°29' E 139°42'3 5.2
2018-May-16 22:00N 35°26' E 139°43'0 0.1
2018-May-16 21:30N 35°26' E 139°43'0 0.0
2018-May-16 21:00N 35°26' E 139°43'0 0.0
2018-May-16 20:30N 35°26' E 139°43'0 0.0
2018-May-16 20:00N 35°26' E 139°43'0 0.0
2018-May-16 19:30N 35°26' E 139°43'0 0.1
2018-May-16 19:00N 35°26' E 139°43'0 0.0
2018-May-16 18:30N 35°26' E 139°43'0 0.1
2018-May-16 18:00N 35°26' E 139°43'0 0.0
2018-May-16 17:30N 35°26' E 139°43'0 0.0
2018-May-16 17:00N 35°26' E 139°43'0 0.0
2018-May-16 16:30N 35°26' E 139°43'0 0.0
2018-May-16 16:00N 35°26' E 139°43'0 0.0
2018-May-16 15:30N 35°26' E 139°43'0 0.0
2018-May-16 15:00N 35°26' E 139°43'0 0.1
2018-May-16 14:30N 35°26' E 139°43'0 0.1
2018-May-16 14:00N 35°26' E 139°43'0 0.1
2018-May-16 13:30N 35°26' E 139°43'0 0.0
2018-May-16 12:59N 35°26' E 139°43'0 0.1
2018-May-16 12:29N 35°26' E 139°43'0 0.1
2018-May-16 12:00N 35°26' E 139°43'0 0.1
2018-May-16 11:30N 35°26' E 139°43'0 0.0
2018-May-16 11:00N 35°26' E 139°43'0 0.1
2018-May-16 10:30N 35°26' E 139°43'0 0.1
2018-May-16 10:00N 35°26' E 139°43'0 0.1
2018-May-16 09:29N 35°26' E 139°43'0 0.0
2018-May-16 09:00N 35°26' E 139°43'3 5.7
2018-May-16 08:30N 35°29' E 139°43'2 3.3
2018-May-16 08:00N 35°31' E 139°44'0 0.0
2018-May-16 07:30N 35°31' E 139°44'0 0.0
2018-May-16 07:00N 35°31' E 139°44'0 0.0
2018-May-16 06:30N 35°31' E 139°44'0 0.0
2018-May-16 06:00N 35°31' E 139°44'0 0.0
2018-May-16 05:30N 35°31' E 139°44'0 0.0
2018-May-16 05:00N 35°31' E 139°44'0 0.0
2018-May-16 04:26N 35°31' E 139°44'0 0.0
2018-May-16 03:51N 35°31' E 139°44'0 0.0
2018-May-16 03:30N 35°31' E 139°44'0 0.0
2018-May-16 03:00N 35°31' E 139°44'0 0.1
2018-May-16 02:30N 35°31' E 139°44'1 2.8
2018-May-16 02:00N 35°29' E 139°43'3 6.2
2018-May-16 01:30N 35°26' E 139°43'0 0.0
2018-May-16 01:00N 35°26' E 139°43'0 0.1
2018-May-16 00:30N 35°26' E 139°43'0 0.0
2018-May-16 00:00N 35°26' E 139°43'0 0.0
2018-May-15 23:30N 35°26' E 139°43'0 0.0
2018-May-15 23:00N 35°26' E 139°43'0 0.0
2018-May-15 22:30N 35°26' E 139°43'0 0.0
2018-May-15 22:00N 35°26' E 139°43'0 0.0
2018-May-15 21:30N 35°26' E 139°43'0 0.0
2018-May-15 21:00N 35°26' E 139°43'0 0.1
2018-May-15 20:30N 35°26' E 139°43'0 0.0
2018-May-15 20:00N 35°26' E 139°43'0 0.0
2018-May-15 19:30N 35°26' E 139°43'0 0.0
2018-May-15 19:00N 35°26' E 139°43'0 0.0
2018-May-15 18:30N 35°26' E 139°43'0 0.0
2018-May-15 18:00N 35°26' E 139°43'0 0.0
2018-May-15 17:30N 35°26' E 139°43'0 0.0
2018-May-15 17:00N 35°26' E 139°43'0 0.0
2018-May-15 16:30N 35°26' E 139°43'0 0.0
2018-May-15 15:59N 35°26' E 139°43'0 0.0
2018-May-15 15:30N 35°26' E 139°43'0 0.0
2018-May-15 15:00N 35°26' E 139°43'0 0.0
2018-May-15 14:30N 35°26' E 139°43'0 0.0
2018-May-15 14:00N 35°26' E 139°43'0 0.0
2018-May-15 13:30N 35°26' E 139°43'0 0.0
2018-May-15 13:00N 35°26' E 139°43'0 0.0
2018-May-15 12:30N 35°26' E 139°43'0 0.0
2018-May-15 12:00N 35°26' E 139°43'0 0.1
2018-May-15 11:30N 35°26' E 139°43'0 0.0
2018-May-15 11:00N 35°26' E 139°43'0 0.1
2018-May-15 10:30N 35°26' E 139°43'0 0.1
2018-May-15 10:00N 35°26' E 139°43'0 0.1
2018-May-15 09:30N 35°26' E 139°43'0 0.1
2018-May-15 09:00N 35°26' E 139°43'0 0.0
2018-May-15 08:30N 35°26' E 139°43'0 0.1
2018-May-15 08:00N 35°26' E 139°43'0 0.1
2018-May-15 07:30N 35°26' E 139°43'0 0.0
2018-May-15 07:00N 35°26' E 139°43'0 0.1
2018-May-15 06:30N 35°26' E 139°43'0 0.1
2018-May-15 06:00N 35°26' E 139°43'0 0.0
2018-May-15 05:30N 35°26' E 139°43'0 0.1
2018-May-15 05:00N 35°26' E 139°43'0 0.0
2018-May-15 04:30N 35°26' E 139°43'0 0.0
2018-May-15 04:00N 35°26' E 139°43'0 0.0
2018-May-15 03:30N 35°26' E 139°43'0 0.0
2018-May-15 03:00N 35°26' E 139°43'0 0.1
2018-May-15 02:30N 35°26' E 139°43'0 0.0
2018-May-15 02:00N 35°26' E 139°43'0 0.1
2018-May-15 01:30N 35°26' E 139°43'0 0.0
2018-May-15 01:00N 35°26' E 139°43'0 0.0
2018-May-15 00:30N 35°26' E 139°43'0 0.0
2018-May-15 00:00N 35°26' E 139°43'0 0.0
2018-May-14 23:30N 35°26' E 139°43'0 0.0
2018-May-14 23:00N 35°26' E 139°43'0 0.0
2018-May-14 22:30N 35°26' E 139°43'0 0.0
2018-May-14 22:00N 35°26' E 139°43'0 0.0
2018-May-14 21:30N 35°26' E 139°43'0 0.0
2018-May-14 21:00N 35°26' E 139°43'0 0.0
2018-May-14 20:30N 35°26' E 139°43'0 0.0
2018-May-14 20:00N 35°26' E 139°43'0 0.0
2018-May-14 19:30N 35°26' E 139°43'0 0.0
2018-May-14 19:00N 35°26' E 139°43'0 0.0
2018-May-14 18:30N 35°26' E 139°43'0 0.0
2018-May-14 18:00N 35°26' E 139°43'0 0.0
2018-May-14 17:30N 35°26' E 139°43'0 0.0
2018-May-14 17:00N 35°26' E 139°43'0 0.1
2018-May-14 16:30N 35°26' E 139°43'0 0.0
2018-May-14 16:00N 35°26' E 139°43'0 0.0
2018-May-14 15:30N 35°26' E 139°43'0 0.0
2018-May-14 15:00N 35°26' E 139°43'0 0.0
2018-May-14 14:30N 35°26' E 139°43'0 0.0
2018-May-14 14:00N 35°26' E 139°43'0 0.0
2018-May-14 13:30N 35°26' E 139°43'0 0.0
2018-May-14 13:00N 35°26' E 139°43'0 0.0
2018-May-14 12:30N 35°26' E 139°43'0 0.1
2018-May-14 12:00N 35°26' E 139°43'0 0.0
2018-May-14 11:30N 35°26' E 139°43'0 0.0
2018-May-14 11:00N 35°26' E 139°43'2 3.9
2018-May-14 10:30N 35°27' E 139°45'3 7.0
2018-May-14 10:00N 35°23' E 139°46'5 9.1
2018-May-14 09:30N 35°19' E 139°44'5 9.4
2018-May-14 08:59N 35°15' E 139°47'510.2
2018-May-14 08:30N 35°10' E 139°47'510.7
2018-May-14 08:00N 35°05' E 139°44'510.7
2018-May-14 07:30N 35°01' E 139°39'611.8
2018-May-14 06:59N 34°58' E 139°33'712.8
2018-May-14 06:27N 34°54' E 139°26'613.0
2018-May-14 05:58N 34°51' E 139°20'612.4
2018-May-14 05:29N 34°47' E 139°14'812.2
2018-May-14 04:51N 34°42' E 139°07'411.5
2018-May-14 04:31N 34°39' E 139°03'5 9.8
2018-May-14 03:58N 34°36' E 138°58'612.1
2018-May-14 03:26N 34°34' E 138°51'711.4
2018-May-14 02:49N 34°33' E 138°42'411.2
2018-May-14 02:30N 34°32' E 138°38'182 9.2
2018-May-13 06:48N 33°46' E 135°06'3 9.4
2018-May-13 06:30N 33°48' E 135°04'5 9.2
2018-May-13 06:00N 33°52' E 135°00'5 9.4
2018-May-13 05:30N 33°55' E 134°56'510.0
2018-May-13 04:59N 33°59' E 134°52'510.4
2018-May-13 04:30N 34°03' E 134°49'510.7
2018-May-13 04:00N 34°08' E 134°45'511.0
2018-May-13 03:30N 34°12' E 134°41'510.8
2018-May-13 03:00N 34°16' E 134°37'4 7.6
2018-May-13 02:30N 34°16' E 134°32'1 1.0
2018-May-13 01:59N 34°16' E 134°31'1 0.9
2018-May-13 01:17N 34°16' E 134°31'0 0.6
2018-May-13 00:57N 34°16' E 134°30'3 4.6
2018-May-13 00:21N 34°17' E 134°27'410.0
2018-May-12 23:54N 34°19' E 134°23'82 8.0
2018-May-12 13:37N 34°01' E 132°46'1 9.5
2018-May-12 13:29N 34°00' E 132°45'510.2
2018-May-12 13:00N 33°56' E 132°41'510.5
2018-May-12 12:30N 33°53' E 132°36'1210.5
2018-May-12 11:23N 33°46' E 132°25'410.8
2018-May-12 11:00N 33°45' E 132°21'610.7
2018-May-12 10:26N 33°42' E 132°14'510.8
2018-May-12 09:56N 33°41' E 132°07'510.8
2018-May-12 09:30N 33°40' E 132°02'510.7
2018-May-12 09:00N 33°38' E 131°56'510.6
2018-May-12 08:30N 33°37' E 131°50'3 6.5
2018-May-12 08:00N 33°36' E 131°46'4 8.5
2018-May-12 07:30N 33°39' E 131°42'4 8.4
2018-May-12 07:00N 33°42' E 131°38'4 8.3
2018-May-12 06:30N 33°43' E 131°34'5 9.5
2018-May-12 06:00N 33°44' E 131°28'5 9.6
2018-May-12 05:30N 33°45' E 131°22'5 9.4
2018-May-12 05:00N 33°46' E 131°17'5 9.8
2018-May-12 04:30N 33°47' E 131°11'5 9.7
2018-May-12 04:00N 33°48' E 131°06'5 9.5
2018-May-12 03:30N 33°48' E 130°60'0 1.0
2018-May-12 03:00N 33°47' E 130°60'0 0.0
2018-May-12 02:30N 33°47' E 130°60'0 0.0
2018-May-12 02:00N 33°47' E 130°60'0 0.0
2018-May-12 01:30N 33°47' E 130°60'0 0.0
2018-May-12 01:00N 33°47' E 130°60'0 0.0
2018-May-12 00:30N 33°47' E 130°60'0 0.0
2018-May-12 00:00N 33°47' E 130°60'0 0.0
2018-May-11 23:30N 33°47' E 130°60'0 0.0
2018-May-11 23:00N 33°47' E 130°60'1 2.9
2018-May-11 22:30N 33°48' E 131°01'2 4.3
2018-May-11 22:00N 33°48' E 131°04'0 0.0
2018-May-11 21:30N 33°48' E 131°04'0 0.0
2018-May-11 21:00N 33°48' E 131°04'0 0.0
2018-May-11 20:30N 33°48' E 131°04'0 0.0
2018-May-11 20:00N 33°48' E 131°04'0 0.0
2018-May-11 19:30N 33°48' E 131°04'0 0.0
2018-May-11 19:00N 33°48' E 131°04'0 0.0
2018-May-11 18:30N 33°48' E 131°04'0 0.0
2018-May-11 18:00N 33°48' E 131°04'0 0.0
2018-May-11 17:30N 33°48' E 131°04'0 0.0
2018-May-11 17:00N 33°48' E 131°04'0 0.1
2018-May-11 16:30N 33°48' E 131°04'0 0.0
2018-May-11 16:00N 33°48' E 131°04'0 0.0
2018-May-11 15:30N 33°48' E 131°04'0 0.0
2018-May-11 15:00N 33°48' E 131°04'0 0.1
2018-May-11 14:30N 33°48' E 131°04'4 8.9
2018-May-11 14:00N 33°48' E 131°09'510.8
2018-May-11 13:30N 33°48' E 131°16'511.0
2018-May-11 13:00N 33°47' E 131°22'510.6
2018-May-11 12:30N 33°47' E 131°29'510.5
2018-May-11 12:00N 33°46' E 131°35'510.5
2018-May-11 11:30N 33°46' E 131°41'610.8
2018-May-11 10:59N 33°46' E 131°48'511.0
2018-May-11 10:30N 33°46' E 131°54'  

Dump ship's entire track history